createdAt,value
2022-11-04T00:02:05.290Z,99677.31
2022-11-04T00:04:31.734Z,99679.81
2022-11-04T00:06:58.195Z,99680.28
2022-11-04T00:09:26.083Z,99679.44
2022-11-04T00:12:11.289Z,99687.78
2022-11-04T00:14:37.763Z,99696.56
2022-11-04T00:17:19.581Z,99705.31
2022-11-04T00:20:05.563Z,99713.03
2022-11-04T00:22:50.612Z,99709.25
2022-11-04T00:25:35.446Z,99714.66
2022-11-04T00:28:21.726Z,99713.22
2022-11-04T00:30:48.192Z,99711.97
2022-11-04T00:33:26.887Z,99733.19
2022-11-04T00:35:57.215Z,99726.13
2022-11-04T00:38:24.550Z,99723.00
2022-11-04T00:40:51.100Z,99734.22
2022-11-04T00:43:17.448Z,99721.50
2022-11-04T00:45:43.831Z,99722.56
2022-11-04T00:48:11.358Z,99723.81
2022-11-04T00:50:37.872Z,99736.53
2022-11-04T00:53:04.468Z,99734.66
2022-11-04T00:55:30.755Z,99739.84
2022-11-04T00:57:58.002Z,99753.19
2022-11-04T01:00:24.453Z,99750.47
2022-11-04T01:02:55.640Z,99749.41
2022-11-04T01:05:21.951Z,99757.75
2022-11-04T01:07:48.246Z,99759.03
2022-11-04T01:10:14.590Z,99763.59
2022-11-04T01:12:40.998Z,99764.44
2022-11-04T01:15:07.574Z,99776.50
2022-11-04T01:17:33.947Z,99776.94
2022-11-04T01:20:00.513Z,99786.13
2022-11-04T01:22:26.802Z,99791.97
2022-11-04T01:24:53.203Z,99790.31
2022-11-04T01:27:19.543Z,99797.63
2022-11-04T01:29:45.914Z,99800.75
2022-11-04T01:32:12.303Z,99804.31
2022-11-04T01:34:42.469Z,99799.97
2022-11-04T01:37:10.182Z,99766.94
2022-11-04T01:39:36.469Z,99807.50
2022-11-04T01:44:42.577Z,99813.78
2022-11-04T01:47:20.028Z,99815.22
2022-11-04T01:49:49.498Z,99812.13
2022-11-04T01:52:18.751Z,99816.09
2022-11-04T01:54:46.296Z,99812.13
2022-11-04T01:57:15.904Z,99807.13
2022-11-04T01:59:42.596Z,99807.78
2022-11-04T02:02:09.105Z,99811.50
2022-11-04T02:04:36.584Z,99814.19
2022-11-04T02:07:05.867Z,99813.38
2022-11-04T02:09:33.195Z,99804.63
2022-11-04T02:12:19.258Z,99801.53
2022-11-04T02:14:46.410Z,99797.34
2022-11-04T02:17:18.585Z,99804.22
2022-11-04T02:19:51.045Z,99796.75
2022-11-04T02:22:36.089Z,99791.75
2022-11-04T02:25:17.680Z,99793.41
2022-11-04T02:27:53.364Z,99791.53
2022-11-04T02:30:21.013Z,99791.34
2022-11-04T02:32:59.734Z,99783.84
2022-11-04T02:35:35.216Z,99794.88
2022-11-04T02:38:10.854Z,99797.56
2022-11-04T02:40:43.443Z,99798.00
2022-11-04T02:43:30.036Z,99799.66
2022-11-04T02:46:03.136Z,99772.84
2022-11-04T02:48:32.243Z,99800.50
2022-11-04T02:51:01.743Z,99806.50
2022-11-04T02:53:41.255Z,99808.38
2022-11-04T02:56:08.330Z,99809.59
2022-11-04T02:58:37.307Z,99797.53
2022-11-04T03:01:04.890Z,99797.16
2022-11-04T03:03:33.780Z,99790.50
2022-11-04T03:06:01.758Z,99785.72
2022-11-04T03:08:31.756Z,99782.38
2022-11-04T03:11:18.192Z,99787.78
2022-11-04T03:13:54.571Z,99788.63
2022-11-04T03:16:26.527Z,99789.84
2022-11-04T03:18:58.127Z,99782.19
2022-11-04T03:21:26.017Z,99779.88
2022-11-04T03:23:53.188Z,99779.88
2022-11-04T03:26:42.724Z,99785.09
2022-11-04T03:29:17.560Z,99778.63
2022-11-04T03:31:46.976Z,99786.34
2022-11-04T03:34:13.393Z,99778.63
2022-11-04T03:36:39.747Z,99780.72
2022-11-04T03:39:06.138Z,99782.16
2022-11-04T03:41:35.928Z,99778.00
2022-11-04T03:44:02.187Z,99781.75
2022-11-04T03:46:28.703Z,99787.13
2022-11-04T03:48:55.787Z,99795.03
2022-11-04T03:51:22.110Z,99796.28
2022-11-04T03:53:48.607Z,99795.84
2022-11-04T03:56:28.954Z,99795.84
2022-11-04T03:59:13.644Z,99792.69
2022-11-04T04:02:04.082Z,99792.94
2022-11-04T04:04:32.415Z,99788.75
2022-11-04T04:07:05.332Z,99779.59
2022-11-04T04:09:38.079Z,99778.75
2022-11-04T04:12:17.656Z,99773.75
2022-11-04T04:14:49.102Z,99775.00
2022-11-04T04:17:34.219Z,99773.34
2022-11-04T04:20:02.881Z,99774.16
2022-11-04T04:22:31.672Z,99774.75
2022-11-04T04:25:18.070Z,99781.19
2022-11-04T04:27:44.975Z,99784.09
2022-11-04T04:30:15.248Z,99789.94
2022-11-04T04:32:43.667Z,99792.19
2022-11-04T04:35:28.956Z,99790.50
2022-11-04T04:38:18.097Z,99793.84
2022-11-04T04:41:05.748Z,99786.16
2022-11-04T04:43:50.545Z,99791.75
2022-11-04T04:46:16.839Z,99795.09
2022-11-04T04:48:43.208Z,99795.69
2022-11-04T04:51:09.543Z,99789.28
2022-11-04T04:53:36.049Z,99808.16
2022-11-04T04:56:02.307Z,99802.53
2022-11-04T04:58:28.594Z,99799.69
2022-11-04T05:00:54.995Z,99795.28
2022-11-04T05:03:21.302Z,99797.59
2022-11-04T05:05:47.630Z,99804.00
2022-11-04T05:08:13.887Z,99798.56
2022-11-04T05:10:40.311Z,99798.47
2022-11-04T05:13:25.242Z,99807.63
2022-11-04T05:15:51.719Z,99795.97
2022-11-04T05:18:17.992Z,99789.31
2022-11-04T05:20:44.539Z,99784.34
2022-11-04T05:23:12.295Z,99791.81
2022-11-04T05:25:42.314Z,99778.75
2022-11-04T05:28:09.017Z,99777.09
2022-11-04T05:30:35.600Z,99775.59
2022-11-04T05:33:04.858Z,99792.63
2022-11-04T05:35:32.313Z,99796.16
2022-11-04T05:37:58.563Z,99798.47
2022-11-04T05:40:25.122Z,99792.88
2022-11-04T05:42:51.629Z,99791.19
2022-11-04T05:45:18.062Z,99795.56
2022-11-04T05:47:44.946Z,99802.16
2022-11-04T05:50:11.305Z,99804.28
2022-11-04T05:52:37.598Z,99811.09
2022-11-04T05:55:04.026Z,99807.75
2022-11-04T05:57:30.561Z,99804.66
2022-11-04T05:59:56.858Z,99809.44
2022-11-04T06:02:23.449Z,99812.06
2022-11-04T06:04:49.816Z,99821.34
2022-11-04T06:07:16.043Z,99824.28
2022-11-04T06:09:42.435Z,99819.50
2022-11-04T06:12:10.283Z,99822.19
2022-11-04T06:14:37.138Z,99827.00
2022-11-04T06:17:03.907Z,99826.81
2022-11-04T06:19:30.223Z,99830.34
2022-11-04T06:21:56.661Z,99830.28
2022-11-04T06:24:23.067Z,99832.19
2022-11-04T06:26:49.375Z,99849.56
2022-11-04T06:29:15.685Z,99853.69
2022-11-04T06:31:42.140Z,99860.13
2022-11-04T06:34:08.545Z,99858.84
2022-11-04T06:36:34.865Z,99860.91
2022-11-04T06:39:04.623Z,99822.22
2022-11-04T06:41:31.495Z,99841.25
2022-11-04T06:43:57.798Z,99851.00
2022-11-04T06:46:29.164Z,99850.34
2022-11-04T06:48:56.248Z,99856.84
2022-11-04T06:51:22.671Z,99864.31
2022-11-04T06:53:48.996Z,99879.47
2022-11-04T06:56:15.319Z,99840.84
2022-11-04T06:58:41.652Z,99889.41
2022-11-04T07:01:13.721Z,99883.69
2022-11-04T07:03:42.394Z,99896.56
2022-11-04T07:06:09.004Z,99886.44
2022-11-04T07:08:35.766Z,99898.47
2022-11-04T07:11:02.784Z,99896.19
2022-11-04T07:13:29.159Z,99904.09
2022-11-04T07:15:55.451Z,99912.44
2022-11-04T07:18:21.823Z,99917.06
2022-11-04T07:20:48.261Z,99913.94
2022-11-04T07:23:14.623Z,99916.59
2022-11-04T07:25:40.889Z,99921.81
2022-11-04T07:28:07.151Z,99922.84
2022-11-04T07:30:33.687Z,99934.13
2022-11-04T07:32:59.957Z,99930.41
2022-11-04T07:35:26.344Z,99939.56
2022-11-04T07:37:52.690Z,99945.78
2022-11-04T07:40:18.958Z,99950.38
2022-11-04T07:42:45.226Z,99958.09
2022-11-04T07:45:11.586Z,99960.59
2022-11-04T07:47:37.913Z,99961.00
2022-11-04T07:50:10.577Z,99966.59
2022-11-04T07:52:37.370Z,99964.34
2022-11-04T07:55:03.871Z,99960.84
2022-11-04T07:57:30.131Z,99964.38
2022-11-04T07:59:56.403Z,99955.00
2022-11-04T08:02:27.585Z,99953.19
2022-11-04T08:04:56.586Z,99953.41
2022-11-04T08:07:22.923Z,99953.84
2022-11-04T08:09:49.191Z,99953.44
2022-11-04T08:12:15.551Z,99945.09
2022-11-04T08:14:41.861Z,99959.06
2022-11-04T08:17:08.166Z,99958.28
2022-11-04T08:19:34.514Z,99964.53
2022-11-04T08:22:00.879Z,99965.38
2022-11-04T08:24:27.159Z,99964.75
2022-11-04T08:26:53.512Z,99969.13
2022-11-04T08:29:19.922Z,99965.59
2022-11-04T08:31:46.199Z,99967.47
2022-11-04T08:34:12.486Z,99969.75
2022-11-04T08:36:40.691Z,99964.75
2022-11-04T08:39:10.866Z,99970.16
2022-11-04T08:41:38.868Z,99975.16
2022-11-04T08:44:05.502Z,99973.06
2022-11-04T08:46:33.444Z,99982.66
2022-11-04T08:48:59.819Z,99968.94
2022-11-04T08:51:26.912Z,99970.19
2022-11-04T08:53:54.999Z,99967.94
2022-11-04T08:56:23.027Z,99973.59
2022-11-04T08:58:49.803Z,99976.72
2022-11-04T09:01:16.695Z,99987.34
2022-11-04T09:03:43.431Z,99986.94
2022-11-04T09:06:11.395Z,99986.94
2022-11-04T09:08:39.236Z,99975.66
2022-11-04T09:11:09.866Z,99974.88
2022-11-04T09:13:39.679Z,99976.13
2022-11-04T09:16:07.164Z,99968.41
2022-11-04T09:18:33.486Z,99967.38
2022-11-04T09:21:00.587Z,99961.31
2022-11-04T09:23:26.975Z,99961.31
2022-11-04T09:25:53.374Z,99966.53
2022-11-04T09:28:19.667Z,99976.31
2022-11-04T09:30:47.162Z,99969.25
2022-11-04T09:33:13.423Z,99971.53
2022-11-04T09:35:39.766Z,99970.66
2022-11-04T09:38:06.057Z,99972.56
2022-11-04T09:40:33.995Z,99976.06
2022-11-04T09:43:12.654Z,99978.34
2022-11-04T09:45:39.911Z,99958.94
2022-11-04T09:48:08.718Z,99958.72
2022-11-04T09:50:45.349Z,99964.78
2022-11-04T09:53:21.178Z,99965.19
2022-11-04T09:55:58.345Z,99968.28
2022-11-04T09:58:24.866Z,99978.03
2022-11-04T10:01:01.502Z,99987.59
2022-11-04T10:03:40.183Z,99985.69
2022-11-04T10:06:26.235Z,99996.56
2022-11-04T10:08:56.904Z,99984.63
2022-11-04T10:11:26.319Z,99982.75
2022-11-04T10:13:58.914Z,99984.00
2022-11-04T10:16:31.291Z,99981.09
2022-11-04T10:19:16.444Z,99987.16
2022-11-04T10:21:46.616Z,99985.47
2022-11-04T10:24:16.079Z,99991.28
2022-11-04T10:26:46.753Z,99989.19
2022-11-04T10:29:22.219Z,99997.53
2022-11-04T10:31:48.518Z,99996.63
2022-11-04T10:34:27.761Z,99994.53
2022-11-04T10:36:55.331Z,99994.53
2022-11-04T10:39:29.779Z,99998.69
2022-11-04T10:41:58.059Z,100003.25
2022-11-04T10:44:26.291Z,100012.38
2022-11-04T10:46:52.742Z,100014.66
2022-11-04T10:49:26.220Z,100007.78
2022-11-04T10:51:56.191Z,100009.88
2022-11-04T10:54:22.780Z,100010.31
2022-11-04T10:56:56.013Z,100010.53
2022-11-04T10:59:30.430Z,100011.19
2022-11-04T11:02:01.119Z,100022.69
2022-11-04T11:04:29.932Z,100022.88
2022-11-04T11:06:58.308Z,100025.38
2022-11-04T11:09:29.438Z,100020.53
2022-11-04T11:11:58.199Z,100028.66
2022-11-04T11:14:27.566Z,100028.19
2022-11-04T11:16:54.626Z,100027.63
2022-11-04T11:19:22.018Z,100031.66
2022-11-04T11:21:55.475Z,100034.91
2022-11-04T11:24:23.393Z,100030.63
2022-11-04T11:26:51.465Z,100026.38
2022-11-04T11:29:42.063Z,100032.94
2022-11-04T11:32:32.782Z,100027.00
2022-11-04T11:35:02.789Z,100023.19
2022-11-04T11:37:32.240Z,100029.81
2022-11-04T11:39:58.669Z,100025.41
2022-11-04T11:42:26.047Z,100022.25
2022-11-04T11:44:54.449Z,100010.03
2022-11-04T11:47:22.086Z,100016.09
2022-11-04T11:50:05.589Z,100027.56
2022-11-04T11:52:32.580Z,100015.03
2022-11-04T11:55:17.778Z,100025.50
2022-11-04T12:01:02.094Z,100030.25
2022-11-04T12:09:37.554Z,100027.97
2022-11-04T12:12:16.628Z,100031.41
2022-11-04T12:14:51.798Z,100030.63
2022-11-04T12:17:37.081Z,100044.50
2022-11-04T12:20:11.732Z,100035.19
2022-11-04T12:22:48.734Z,100041.44
2022-11-04T12:25:35.669Z,100052.53
2022-11-04T12:28:10.842Z,100052.72
2022-11-04T12:30:50.178Z,100044.56
2022-11-04T12:33:35.732Z,100051.22
2022-11-04T12:36:26.328Z,100054.16
2022-11-04T12:39:02.798Z,100056.81
2022-11-04T12:41:52.359Z,100055.91
2022-11-04T12:44:27.948Z,100057.25
2022-11-04T12:47:07.099Z,100059.22
2022-11-04T12:49:51.809Z,100056.72
2022-11-04T12:52:39.649Z,100067.81
2022-11-04T12:55:06.120Z,100070.09
2022-11-04T12:57:35.526Z,100076.03
2022-11-04T13:00:02.057Z,100065.38
2022-11-04T13:02:39.552Z,100068.00
2022-11-04T13:05:09.055Z,100072.00
2022-11-04T13:07:40.011Z,100069.44
2022-11-04T13:10:11.249Z,100076.47
2022-11-04T13:12:43.606Z,100069.00
2022-11-04T13:15:12.934Z,100076.06
2022-11-04T13:17:40.147Z,100076.16
2022-11-04T13:20:15.634Z,100055.88
2022-11-04T13:22:50.147Z,100078.72
2022-11-04T13:25:25.764Z,100081.66
2022-11-04T13:27:52.418Z,100088.16
2022-11-04T13:30:25.769Z,100094.59
2022-11-04T13:33:18.715Z,100100.25
2022-11-04T13:36:03.820Z,100101.25
2022-11-04T13:38:39.048Z,100101.66
2022-11-04T13:41:10.373Z,100100.38
2022-11-04T13:43:39.747Z,100107.66
2022-11-04T13:46:17.288Z,100106.81
2022-11-04T13:48:53.080Z,100107.69
2022-11-04T13:51:19.877Z,100121.88
2022-11-04T13:53:57.866Z,100123.59
2022-11-04T13:56:33.302Z,100117.53
2022-11-04T13:59:03.025Z,100123.97
2022-11-04T14:01:31.404Z,100129.63
2022-11-04T14:04:13.112Z,100125.44
2022-11-04T14:06:48.695Z,100132.91
2022-11-04T14:09:35.500Z,100134.19
2022-11-04T14:12:10.960Z,100136.03
2022-11-04T14:14:38.370Z,100144.47
2022-11-04T14:17:07.240Z,100145.34
2022-11-04T14:19:47.566Z,100147.84
2022-11-04T14:22:15.074Z,100155.16
2022-11-04T14:24:41.811Z,100155.16
2022-11-04T14:27:24.144Z,100158.28
2022-11-04T14:29:52.779Z,100161.84
2022-11-04T14:32:25.302Z,100165.63
2022-11-04T14:34:59.902Z,100175.44
2022-11-04T14:37:30.480Z,100183.00
2022-11-04T14:39:58.936Z,100177.63
2022-11-04T14:42:43.908Z,100179.91
2022-11-04T14:45:15.322Z,100148.25
2022-11-04T14:47:42.752Z,100180.97
2022-11-04T14:50:16.997Z,100185.41
2022-11-04T14:52:43.256Z,100196.69
2022-11-04T14:55:18.093Z,100200.03
2022-11-04T14:57:45.995Z,100212.59
2022-11-04T15:00:21.107Z,100220.53
2022-11-04T15:02:47.687Z,100223.50
2022-11-04T15:05:24.860Z,100228.72
2022-11-04T15:07:51.287Z,100233.13
2022-11-04T15:10:20.443Z,100229.19
2022-11-04T15:12:54.450Z,100233.97
2022-11-04T15:15:28.605Z,100236.47
2022-11-04T15:18:18.244Z,100242.75
2022-11-04T15:20:49.434Z,100236.94
2022-11-04T15:23:17.291Z,100248.59
2022-11-04T15:25:44.672Z,100251.34
2022-11-04T15:28:18.810Z,100256.13
2022-11-04T15:30:56.161Z,100228.59
2022-11-04T15:33:24.993Z,100269.09
2022-11-04T15:35:52.043Z,100273.22
2022-11-04T15:38:18.628Z,100274.06
2022-11-04T15:40:45.842Z,100271.56
2022-11-04T15:43:14.423Z,100281.78
2022-11-04T15:45:46.858Z,100284.31
2022-11-04T15:48:25.874Z,100283.69
2022-11-04T15:50:58.480Z,100275.34
2022-11-04T15:53:24.981Z,100301.63
2022-11-04T15:55:51.618Z,100303.72
2022-11-04T15:58:18.708Z,100308.28
2022-11-04T16:00:51.931Z,100308.09
2022-11-04T16:03:19.121Z,100314.53
2022-11-04T16:05:59.734Z,100308.72
2022-11-04T16:08:29.063Z,100316.66
2022-11-04T16:11:15.692Z,100323.47
2022-11-04T16:13:42.804Z,100332.25
2022-11-04T16:16:35.492Z,100334.78
2022-11-04T16:19:01.846Z,100333.28
2022-11-04T16:21:33.368Z,100337.66
2022-11-04T16:24:02.799Z,100326.63
2022-11-04T16:26:31.518Z,100335.56
2022-11-04T16:28:59.161Z,100344.53
2022-11-04T16:31:27.449Z,100348.28
2022-11-04T16:33:54.459Z,100347.00
2022-11-04T16:36:23.800Z,100357.25
2022-11-04T16:38:57.650Z,100357.44
2022-11-04T16:41:27.790Z,100360.16
2022-11-04T16:43:54.712Z,100364.13
2022-11-04T16:46:21.940Z,100363.69
2022-11-04T16:48:49.424Z,100369.91
2022-11-04T16:51:20.164Z,100365.75
2022-11-04T16:53:48.966Z,100373.22
2022-11-04T16:56:16.039Z,100373.63
2022-11-04T16:58:42.412Z,100368.22
2022-11-04T17:01:12.941Z,100381.94
2022-11-04T17:03:39.625Z,100377.72
2022-11-04T17:06:06.532Z,100382.75
2022-11-04T17:08:33.048Z,100381.88
2022-11-04T17:10:59.441Z,100387.31
2022-11-04T17:13:25.912Z,100394.16
2022-11-04T17:15:52.420Z,100397.34
2022-11-04T17:18:18.801Z,100397.16
2022-11-04T17:20:47.303Z,100391.75
2022-11-04T17:23:14.663Z,100404.88
2022-11-04T17:25:41.521Z,100409.50
2022-11-04T17:28:07.820Z,100413.47
2022-11-04T17:30:34.236Z,100425.75
2022-11-04T17:33:01.052Z,100434.94
2022-11-04T17:35:27.945Z,100432.63
2022-11-04T17:37:54.694Z,100431.84
2022-11-04T17:40:21.770Z,100435.78
2022-11-04T17:43:11.552Z,100452.06
2022-11-04T17:45:39.023Z,100448.28
2022-11-04T17:48:05.442Z,100449.16
2022-11-04T17:50:32.243Z,100461.03
2022-11-04T17:52:58.656Z,100456.03
2022-11-04T17:55:27.730Z,100459.38
2022-11-04T17:57:54.577Z,100466.22
2022-11-04T18:00:24.271Z,100458.66
2022-11-04T18:02:51.060Z,100463.81
2022-11-04T18:05:17.543Z,100469.22
2022-11-04T18:07:43.853Z,100469.63
2022-11-04T18:10:10.263Z,100476.03
2022-11-04T18:12:36.971Z,100480.97
2022-11-04T18:15:04.438Z,100480.97
2022-11-04T18:17:30.920Z,100478.69
2022-11-04T18:19:57.319Z,100469.53
2022-11-04T18:22:23.860Z,100483.25
2022-11-04T18:24:50.369Z,100473.47
2022-11-04T18:27:16.696Z,100474.69
2022-11-04T18:29:43.007Z,100479.28
2022-11-04T18:32:09.405Z,100480.75
2022-11-04T18:34:35.821Z,100482.59
2022-11-04T18:37:02.530Z,100489.03
2022-11-04T18:39:29.034Z,100505.50
2022-11-04T18:41:55.313Z,100495.97
2022-11-04T18:44:22.551Z,100491.19
2022-11-04T18:46:49.428Z,100505.78
2022-11-04T18:49:16.761Z,100499.25
2022-11-04T18:51:43.501Z,100499.88
2022-11-04T18:54:10.711Z,100508.38
2022-11-04T18:56:37.086Z,100506.19
2022-11-04T18:59:03.884Z,100515.75
2022-11-04T19:01:34.066Z,100510.72
2022-11-04T19:04:00.883Z,100519.69
2022-11-04T19:06:28.614Z,100524.84
2022-11-04T19:08:56.179Z,100521.56
2022-11-04T19:11:24.151Z,100523.63
2022-11-04T19:13:57.518Z,100514.84
2022-11-04T19:16:25.137Z,100522.31
2022-11-04T19:18:51.662Z,100521.50
2022-11-04T19:21:18.712Z,100517.75
2022-11-04T19:23:45.114Z,100492.59
2022-11-04T19:26:12.797Z,100536.91
2022-11-04T19:28:47.720Z,100541.91
2022-11-04T19:31:16.254Z,100546.88
2022-11-04T19:33:42.644Z,100545.28
2022-11-04T19:36:09.872Z,100551.50
2022-11-04T19:38:36.560Z,100560.00
2022-11-04T19:41:07.112Z,100560.22
2022-11-04T19:43:33.627Z,100560.22
2022-11-04T19:46:04.280Z,100573.94
2022-11-04T19:48:31.261Z,100567.31
2022-11-04T19:50:57.648Z,100581.81
2022-11-04T19:53:24.008Z,100581.16
2022-11-04T19:55:52.149Z,100593.22
2022-11-04T19:58:19.153Z,100579.69
2022-11-04T20:00:47.091Z,100585.03
2022-11-04T20:03:14.272Z,100583.72
2022-11-04T20:05:41.751Z,100589.97
2022-11-04T20:08:08.970Z,100597.06
2022-11-04T20:10:38.087Z,100596.06
2022-11-04T20:13:23.057Z,100592.59
2022-11-04T20:15:49.730Z,100592.50
2022-11-04T20:18:16.155Z,100603.13
2022-11-04T20:20:42.488Z,100598.75
2022-11-04T20:23:08.955Z,100606.59
2022-11-04T20:25:35.317Z,100613.22
2022-11-04T20:28:01.960Z,100619.69
2022-11-04T20:30:28.288Z,100626.56
2022-11-04T20:32:54.671Z,100643.47
2022-11-04T20:35:21.694Z,100635.34
2022-11-04T20:37:48.033Z,100638.31
2022-11-04T20:40:14.531Z,100639.91
2022-11-04T20:42:47.804Z,100653.63
2022-11-04T20:45:19.073Z,100659.47
2022-11-04T20:47:45.893Z,100659.88
2022-11-04T20:50:12.417Z,100666.13
2022-11-04T20:52:38.756Z,100669.00
2022-11-04T20:55:06.113Z,100672.94
2022-11-04T20:57:33.647Z,100679.00
2022-11-04T20:59:59.994Z,100678.34
2022-11-04T21:02:26.738Z,100676.50
2022-11-04T21:04:53.542Z,100677.84
2022-11-04T21:07:19.979Z,100681.78
2022-11-04T21:09:46.379Z,100685.69
2022-11-04T21:12:12.816Z,100692.97
2022-11-04T21:14:39.135Z,100694.66
2022-11-04T21:17:05.789Z,100694.66
2022-11-04T21:19:32.071Z,100706.69
2022-11-04T21:21:58.430Z,100702.50
2022-11-04T21:24:24.781Z,100712.47
2022-11-04T21:26:51.191Z,100716.69
2022-11-04T21:29:19.271Z,100721.25
2022-11-04T21:31:46.377Z,100718.34
2022-11-04T21:34:13.251Z,100725.72
2022-11-04T21:36:39.999Z,100720.97
2022-11-04T21:39:06.473Z,100728.09
2022-11-04T21:41:33.596Z,100733.84
2022-11-04T21:44:01.223Z,100733.16
2022-11-04T21:46:28.574Z,100735.88
2022-11-04T21:48:55.150Z,100737.00
2022-11-04T21:51:23.010Z,100735.63
2022-11-04T21:53:49.400Z,100734.41
2022-11-04T21:56:17.206Z,100743.56
2022-11-04T21:58:44.091Z,100747.28
2022-11-04T22:01:11.609Z,100752.97
2022-11-04T22:03:38.035Z,100756.88
2022-11-04T22:06:08.545Z,100762.88
2022-11-04T22:08:35.355Z,100766.41
2022-11-04T22:11:05.918Z,100768.91
2022-11-04T22:13:32.359Z,100761.66
2022-11-04T22:15:58.677Z,100719.28
2022-11-04T22:18:25.603Z,100765.84
2022-11-04T22:20:52.218Z,100768.56
2022-11-04T22:23:18.605Z,100773.59
2022-11-04T22:25:49.888Z,100768.19
2022-11-04T22:28:16.782Z,100769.41
2022-11-04T22:30:43.483Z,100775.56
2022-11-04T22:33:10.252Z,100772.84
2022-11-04T22:35:36.975Z,100774.34
2022-11-04T22:38:06.135Z,100778.06
2022-11-04T22:40:33.515Z,100778.44
2022-11-04T22:43:00.159Z,100779.66
2022-11-04T22:45:26.499Z,100784.91
2022-11-04T22:47:55.474Z,100784.75
2022-11-04T22:50:21.785Z,100789.97
2022-11-04T22:52:48.223Z,100788.69
2022-11-04T22:55:14.623Z,100789.72
2022-11-04T22:57:41.259Z,100794.00
2022-11-04T23:00:08.033Z,100800.22
2022-11-04T23:02:37.045Z,100803.13
2022-11-04T23:05:03.978Z,100806.84
2022-11-04T23:07:30.705Z,100814.13
2022-11-04T23:10:15.737Z,100807.41
2022-11-04T23:13:00.579Z,100808.25
2022-11-04T23:15:45.426Z,100818.41
2022-11-04T23:18:31.357Z,100815.44
2022-11-04T23:21:16.463Z,100823.25
2022-11-04T23:24:01.853Z,100824.44
2022-11-04T23:26:28.539Z,100818.69
2022-11-04T23:29:13.546Z,100824.53
2022-11-04T23:31:39.866Z,100831.44
2022-11-04T23:34:24.926Z,100835.06
2022-11-04T23:37:13.298Z,100828.34
2022-11-04T23:39:40.780Z,100828.69
2022-11-04T23:42:16.229Z,100829.41
2022-11-04T23:45:09.151Z,100825.41
2022-11-04T23:47:56.437Z,100823.56
2022-11-04T23:50:42.560Z,100826.53
2022-11-04T23:53:29.770Z,100836.13
2022-11-04T23:56:14.698Z,100833.44
2022-11-04T23:58:59.830Z,100839.19
